Latest Coastal Weather Observations for Ulladulla

IDN60701

Issued at 9:55 am EST Thursday 2 October 2014 (issued every 10 minutes, with the page automatically refreshed every 10 minutes)

About coastal observations | Map of coastal stations | Coastal observations for NSW | Marine services | Other Formats
Station Details ID: 069138 Name: ULLADULLA AWS Lat: -35.36 Lon: 150.48 Height: 35.7 m
Data from the previous 72 hours. | See also: Recent months at Ulladulla
Date/Time
EST
Temp

°C
Wind Pressure Rain
since 9am
mm
Weather Cloud Vis
km
Sea
Height
m
Swell
Dir
 
Speed
knots
Gust
knots
hPa Trend Height
m
Period
s
Dir
02/09:30am 16.1 SSE 4 6 1020.9 - 0.0 - - - - - - -
02/09:00am 15.3 SE 3 6 1021.2 - 0.0 - - - - - - -
02/08:30am 15.0 S 3 5 1021.3 - 0.0 - - - - - - -
02/08:00am 14.7 SSE 2 4 1021.3 - 0.0 - - - - - - -
02/07:30am 14.9 W 0 0 1021.2 - 0.0 - - - - - - -
02/07:00am 13.2 WNW 1 2 1021.2 - 0.0 - - - - - - -
02/06:30am 11.0 CALM 0 0 1021.3 - 0.0 - - - - - - -
02/06:00am 9.4 WNW 2 4 1021.3 - 0.0 - - - - - - -
02/05:30am 9.9 WNW 3 4 1021.1 - 0.0 - - - - - - -
02/05:00am 10.0 WNW 3 4 1021.0 - 0.0 - - - - - - -
02/04:30am 10.6 WNW 4 5 1021.0 - 0.0 - - - - - - -
02/04:00am 10.4 NW 4 7 1020.7 - 0.0 - - - - - - -
02/03:30am 10.5 WNW 4 5 1021.2 - 0.0 - - - - - - -
02/03:00am 9.9 WNW 3 3 1021.3 - 0.0 - - - - - - -
02/02:30am 10.1 WNW 3 4 1021.5 - 0.0 - - - - - - -
02/02:00am 10.4 WNW 3 4 1021.5 - 0.0 - - - - - - -
02/01:30am 10.9 WNW 3 4 1021.8 - 0.0 - - - - - - -
02/01:00am 10.8 W 3 5 1022.1 - 0.0 - - - - - - -
02/12:30am 10.6 W 3 5 1022.4 - 0.0 - - - - - - -
02/12:00am 10.5 W 3 4 1022.7 - 0.0 - - - - - - -
 
Date/Time
EST
Temp

°C
Wind Pressure Rain
since 9am
mm
Weather Cloud Vis
km
Sea
Height
m
Swell
Dir
 
Speed
knots
Gust
knots
hPa Trend Height
m
Period
s
Dir
01/11:30pm 10.6 W 3 4 1022.8 - 0.0 - - - - - - -
01/11:00pm 11.0 WSW 3 4 1023.0 - 0.0 - - - - - - -
01/10:30pm 11.4 W 2 4 1023.1 - 0.0 - - - - - - -
01/10:00pm 11.2 W 2 4 1022.8 - 0.0 - - - - - - -
01/09:30pm 11.9 WSW 2 4 1022.8 - 0.0 - - - - - - -
01/09:00pm 12.2 WSW 3 7 1022.7 - 0.0 - - - - - - -
01/08:30pm 12.9 W 3 4 1022.7 - 0.0 - - - - - - -
01/08:00pm 14.5 S 7 11 1022.4 - 0.0 - - - - - - -
01/07:30pm 14.4 S 8 13 1021.9 - 0.0 - - - - - - -
01/07:00pm 14.7 S 10 15 1021.4 - 0.0 - - - - - - -
01/06:30pm 14.8 S 10 15 1021.0 - 0.0 - - - - - - -
01/06:00pm 14.8 S 11 16 1020.6 - 0.0 - - - - - - -
01/05:30pm 14.9 SSE 11 16 1020.0 - 0.0 - - - - - - -
01/05:00pm 15.2 SSE 13 19 1019.7 - 0.0 - - - - - - -
01/04:30pm 15.7 S 14 20 1019.5 - 0.0 - - - - - - -
01/04:00pm 16.2 S 17 23 1019.1 - 0.0 - - - - - - -
01/03:30pm 16.4 S 17 23 1018.5 - 0.0 - - - - - - -
01/03:00pm 16.8 S 15 22 1018.3 - 0.0 - - - - - - -
01/02:30pm 16.9 S 16 25 1018.2 - 0.0 - - - - - - -
01/02:00pm 16.9 S 15 22 1018.2 - 0.0 - - - - - - -
01/01:30pm 17.4 S 14 19 1018.3 - 0.0 - - - - - - -
01/01:00pm 17.2 S 13 19 1018.3 - 0.0 - - - - - - -
01/12:30pm 16.9 S 17 24 1018.4 - 0.0 - - - - - - -
01/12:00pm 16.9 S 17 23 1018.4 - 0.0 - - - - - - -
01/11:30am 16.8 S 16 21 1018.5 - 0.0 - - - - - - -
01/11:00am 16.8 S 16 22 1018.5 - 0.0 - - - - - - -
01/10:30am 17.0 S 10 17 1018.3 - 0.0 - - - - - - -
01/10:00am 17.2 SSW 9 15 1018.0 - 0.0 - - - - - - -
01/09:30am 16.2 SSW 11 19 1017.9 - 0.0 - - - - - - -
01/09:00am 15.6 SW 12 19 1017.7 - 0.0 - - - - - - -
01/08:30am 15.7 SW 9 15 1017.4 - 0.0 - - - - - - -
01/08:00am 14.9 SW 9 13 1017.1 - 0.0 - - - - - - -
01/07:30am 14.8 WSW 8 13 1016.5 - 0.0 - - - - - - -
01/07:00am 14.0 SW 11 19 1016.1 - 0.0 - - - - - - -
01/06:30am 13.7 SW 9 17 1015.5 - 0.0 - - - - - - -
01/06:00am 12.9 WSW 7 13 1014.6 - 0.0 - - - - - - -
01/05:30am 13.1 WSW 10 17 1013.8 - 0.0 - - - - - - -
01/05:00am 12.0 WSW 7 13 1013.3 - 0.0 - - - - - - -
01/04:30am 11.9 NW 4 6 1012.7 - 0.0 - - - - - - -
01/04:00am 11.7 W 2 3 1012.1 - 0.0 - - - - - - -
01/03:30am 12.5 NNW 5 8 1011.2 - 0.0 - - - - - - -
01/03:00am 12.9 N 3 5 1011.0 - 0.0 - - - - - - -
01/02:30am 12.7 CALM 0 2 1010.9 - 0.0 - - - - - - -
01/02:00am 13.4 S 7 10 1010.8 - 0.0 - - - - - - -
01/01:30am 13.4 S 13 19 1010.7 - 0.0 - - - - - - -
01/01:00am 14.0 S 21 30 1010.7 - 0.0 - - - - - - -
01/12:57am 14.1 S 22 30 1010.6 - 0.0 - - - - - - -
01/12:30am 16.3 SSE 19 31 1008.6 - 0.0 - - - - - - -
01/12:23am 19.4 S 15 34 1008.4 - 0.0 - - - - - - -
01/12:00am 23.0 W 8 17 1007.1 - 0.0 - - - - - - -
 
Date/Time
EST
Temp

°C
Wind Pressure Rain
since 9am
mm
Weather Cloud Vis
km
Sea
Height
m
Swell
Dir
 
Speed
knots
Gust
knots
hPa Trend Height
m
Period
s
Dir
30/11:30pm 23.3 W 5 8 1006.3 - 0.0 - - - - - - -
30/11:00pm 24.0 WNW 8 15 1005.8 - 0.0 - - - - - - -
30/10:30pm 23.5 WNW 5 12 1005.7 - 0.0 - - - - - - -
30/10:00pm 23.4 N 2 7 1005.8 - 0.0 - - - - - - -
30/09:30pm 22.3 NNE 2 9 1006.0 - 0.0 - - - - - - -
30/09:00pm 23.8 NNW 2 5 1006.0 - 0.0 - - - - - - -
30/08:30pm 24.5 NW 4 18 1006.1 - 0.0 - - - - - - -
30/08:00pm 23.3 WSW 2 6 1006.3 - 0.0 - - - - - - -
30/07:30pm 24.7 WNW 4 10 1006.3 - 0.0 - - - - - - -
30/07:00pm 25.0 NW 5 14 1006.0 - 0.0 - - - - - - -
30/06:30pm 25.5 WNW 6 15 1005.6 - 0.0 - - - - - - -
30/06:00pm 25.8 NW 5 11 1005.3 - 0.0 - - - - - - -
30/05:30pm 26.8 NW 12 23 1005.0 - 0.0 - - - - - - -
30/05:00pm 27.4 NNW 15 28 1004.7 - 0.0 - - - - - - -
30/04:39pm 27.7 NNW 15 27 1004.4 - 0.0 - - - - - - -
30/04:30pm 27.7 NNW 14 25 1004.6 - 0.0 - - - - - - -
30/04:24pm 27.9 NNW 15 25 1004.4 - 0.0 - - - - - - -
30/04:00pm 28.6 NW 13 30 1005.2 - 0.0 - - - - - - -
30/03:30pm 29.1 NW 15 27 1005.6 - 0.0 - - - - - - -
30/03:00pm 29.3 NW 18 30 1005.6 - 0.0 - - - - - - -
30/02:53pm 29.4 NW 15 30 1005.6 - 0.0 - - - - - - -
30/02:30pm 29.3 NW 17 25 1005.9 - 0.0 - - - - - - -
30/02:00pm 29.4 NW 12 21 1006.5 - 0.0 - - - - - - -
30/01:30pm 30.0 WNW 11 19 1006.8 - 0.0 - - - - - - -
30/01:00pm 29.5 WNW 7 12 1007.0 - 0.0 - - - - - - -
30/12:30pm 29.2 NW 11 19 1007.5 - 0.0 - - - - - - -
30/12:00pm 28.9 NNW 13 20 1008.0 - 0.0 - - - - - - -
30/11:30am 28.3 NW 11 18 1008.5 - 0.0 - - - - - - -
30/11:00am 27.7 NNW 11 19 1008.9 - 0.0 - - - - - - -
30/10:30am 24.1 NNE 6 12 1009.7 - 0.0 - - - - - - -
30/10:00am 23.7 N 5 9 1010.2 - 0.0 - - - - - - -
30/09:30am 24.7 N 7 13 1010.7 - 0.0 - - - - - - -
30/09:00am 24.4 NNW 9 14 1010.9 - 0.0 - - - - - - -
30/08:30am 23.7 NNW 6 12 1011.3 - 0.0 - - - - - - -
30/08:00am 22.5 N 6 8 1011.6 - 0.0 - - - - - - -
30/07:30am 21.5 NNW 5 7 1011.7 - 0.0 - - - - - - -
30/07:00am 20.2 NNW 4 6 1011.6 - 0.0 - - - - - - -
30/06:30am 19.0 NNW 4 7 1011.7 - 0.0 - - - - - - -
30/06:26am 18.4 NNW 4 6 1011.6 - 0.0 - - - - - - -
30/06:00am 13.4 NNW 3 4 1011.6 - 0.0 - - - - - - -
30/05:30am 12.2 CALM 0 0 1011.3 - 0.0 - - - - - - -
30/05:00am 12.0 CALM 0 0 1011.0 - 0.0 - - - - - - -
30/04:30am 12.9 N 4 6 1011.0 - 0.0 - - - - - - -
30/04:00am 13.3 N 6 7 1011.0 - 0.0 - - - - - - -
30/03:30am 13.6 N 5 8 1011.3 - 0.0 - - - - - - -
30/03:00am 12.0 N 4 4 1011.6 - 0.0 - - - - - - -
30/02:30am 12.9 NNW 3 4 1012.0 - 0.0 - - - - - - -
30/02:00am 12.8 NNW 3 4 1012.3 - 0.0 - - - - - - -
30/01:30am 12.9 NW 4 5 1012.7 - 0.0 - - - - - - -
30/01:00am 13.0 WNW 3 4 1013.0 - 0.0 - - - - - - -
30/12:30am 13.0 WSW 2 3 1013.4 - 0.0 - - - - - - -
30/12:00am 13.1 CALM 0 0 1013.6 - 0.0 - - - - - - -
 
Date/Time
EST
Temp

°C
Wind Pressure Rain
since 9am
mm
Weather Cloud Vis
km
Sea
Height
m
Swell
Dir
 
Speed
knots
Gust
knots
hPa Trend Height
m
Period
s
Dir
29/11:30pm 13.3 CALM 0 0 1013.9 - 0.0 - - - - - - -
29/11:00pm 13.4 WSW 1 1 1014.3 - 0.0 - - - - - - -
29/10:30pm 13.5 WSW 2 2 1014.5 - 0.0 - - - - - - -
29/10:00pm 13.7 WSW 2 3 1014.8 - 0.0 - - - - - - -
29/09:30pm 14.0 W 3 3 1015.2 - 0.0 - - - - - - -
29/09:00pm 14.4 W 2 3 1015.3 - 0.0 - - - - - - -
29/08:30pm 14.1 W 3 4 1015.6 - 0.0 - - - - - - -
29/08:00pm 14.2 WSW 3 4 1015.6 - 0.0 - - - - - - -
29/07:30pm 14.7 WSW 3 4 1015.5 - 0.0 - - - - - - -
29/07:00pm 15.4 SW 2 3 1015.3 - 0.0 - - - - - - -
29/06:30pm 16.2 SSW 3 5 1015.3 - 0.0 - - - - - - -
29/06:00pm 16.7 SSW 5 8 1014.9 - 0.0 - - - - - - -
29/05:30pm 17.1 S 9 10 1014.7 - 0.0 - - - - - - -
29/05:00pm 17.4 S 9 11 1014.5 - 0.0 - - - - - - -
29/04:30pm 17.8 S 10 12 1014.1 - 0.0 - - - - - - -
29/04:00pm 18.4 S 11 13 1013.9 - 0.0 - - - - - - -
29/03:30pm 18.9 S 10 14 1013.6 - 0.0 - - - - - - -
29/03:00pm 19.2 S 10 13 1013.1 - 0.0 - - - - - - -
29/02:30pm 19.4 S 11 15 1012.7 - 0.0 - - - - - - -
29/02:00pm 19.7 S 10 14 1012.4 - 0.0 - - - - - - -
29/01:30pm 20.1 S 10 14 1012.0 - 0.0 - - - - - - -
29/01:00pm 20.6 SSE 9 15 1011.4 - 0.0 - - - - - - -
29/12:44pm 23.0 SSE 14 18 1011.3 - 0.0 - - - - - - -
29/12:30pm 28.6 WNW 4 9 1010.9 - 0.0 - - - - - - -
29/12:00pm 29.0 W 6 12 1011.2 - 0.0 - - - - - - -
29/11:30am 27.8 NW 8 14 1011.5 - 0.0 - - - - - - -
29/11:00am 27.5 WNW 8 12 1011.8 - 0.0 - - - - - - -
29/10:30am 26.6 WNW 8 18 1012.2 - 0.0 - - - - - - -
29/10:00am 25.6 NW 7 13 1012.5 - 0.0 - - - - - - -

Other Formats:

Comma delimited format used in spreadsheet applications
http://www.bom.gov.au/fwo/IDN60701/IDN60701.94938.axf

JavaScript Object Notation format (JSON) in row-major order
http://www.bom.gov.au/fwo/IDN60701/IDN60701.94938.json